Time;durP1;ratioP1;P1;durP2;ratioP2;P2;SDS_P1;SDS_P2;PMS_P1;PMS_P2;Temp;Humidity;BMP_temperature;BMP_pressure;BME280_temperature;BME280_humidity;BME280_pressure;Samples;Min_cycle;Max_cycle;Signal;HPM_P1;HPM_P2
2021/10/27 00:01:00;;;;;;;4.50;2.43;;;14.10;99.90;;;;;;5036928;28;20615;-78
2021/10/27 00:03:26;;;;;;;5.10;3.00;;;14.10;99.90;;;;;;5036671;28;20275;-78
2021/10/27 00:05:52;;;;;;;5.50;2.80;;;14.10;99.90;;;;;;5036646;28;21061;-78
2021/10/27 00:08:18;;;;;;;4.83;2.30;;;14.10;99.90;;;;;;5036804;28;20525;-78
2021/10/27 00:10:43;;;;;;;5.50;2.63;;;14.10;99.90;;;;;;5037720;28;20172;-78
2021/10/27 00:13:09;;;;;;;5.47;2.57;;;14.10;99.90;;;;;;5036305;28;20206;-78
2021/10/27 00:15:35;;;;;;;4.53;2.40;;;14.10;99.90;;;;;;5036581;28;20200;-78
2021/10/27 00:18:01;;;;;;;7.67;2.57;;;14.10;99.90;;;;;;5036457;28;20180;-78
2021/10/27 00:20:27;;;;;;;4.70;2.23;;;14.10;99.90;;;;;;5035878;28;20515;-78
2021/10/27 00:22:53;;;;;;;4.50;2.37;;;14.00;99.90;;;;;;5035662;28;20501;-79
2021/10/27 00:25:19;;;;;;;5.23;2.90;;;14.00;99.90;;;;;;5036153;28;20435;-78
2021/10/27 00:27:45;;;;;;;3.67;2.07;;;14.00;99.90;;;;;;5037087;28;20184;-78
2021/10/27 00:30:11;;;;;;;3.70;2.03;;;14.00;99.90;;;;;;5036500;28;20272;-78
2021/10/27 00:32:37;;;;;;;3.60;2.40;;;14.00;99.90;;;;;;5036143;28;20230;-78
2021/10/27 00:35:03;;;;;;;6.70;3.23;;;14.00;99.90;;;;;;5035948;28;20821;-78
2021/10/27 00:37:29;;;;;;;6.27;2.93;;;14.00;99.90;;;;;;5036094;28;20592;-78
2021/10/27 00:39:55;;;;;;;5.37;2.50;;;14.00;99.90;;;;;;5035755;28;20464;-78
2021/10/27 00:42:22;;;;;;;4.57;2.30;;;14.00;99.90;;;;;;5035790;28;20459;-79
2021/10/27 00:44:48;;;;;;;7.90;2.90;;;14.00;99.90;;;;;;5035340;28;20954;-78
2021/10/27 00:47:16;;;;;;;7.33;3.00;;;14.00;99.90;;;;;;5034805;28;20450;-78
2021/10/27 00:49:44;;;;;;;5.90;2.50;;;13.90;99.90;;;;;;5035847;28;20838;-78
2021/10/27 00:52:13;;;;;;;5.73;2.70;;;14.00;99.90;;;;;;5035065;28;20481;-78
2021/10/27 00:54:43;;;;;;;6.00;2.47;;;14.00;99.90;;;;;;5035206;28;20438;-77
2021/10/27 00:57:10;;;;;;;4.33;2.00;;;14.00;99.90;;;;;;5035143;28;20534;-78
2021/10/27 00:59:40;;;;;;;3.27;1.80;;;14.00;99.90;;;;;;5035195;28;20914;-78
2021/10/27 01:02:06;;;;;;;3.93;1.97;;;14.00;99.90;;;;;;5034791;28;20422;-78
2021/10/27 01:04:31;;;;;;;3.53;2.00;;;14.00;99.90;;;;;;5035387;28;20515;-77
2021/10/27 01:06:58;;;;;;;2.73;1.50;;;14.00;99.90;;;;;;5033324;28;20749;-77
2021/10/27 01:09:24;;;;;;;4.37;2.30;;;14.00;99.90;;;;;;5033435;28;20335;-78
2021/10/27 01:11:50;;;;;;;5.30;2.10;;;14.00;99.90;;;;;;5033316;28;20431;-77
2021/10/27 01:14:17;;;;;;;3.37;1.80;;;14.00;99.90;;;;;;5033500;28;20438;-78
2021/10/27 01:16:45;;;;;;;3.53;2.23;;;14.00;99.90;;;;;;5033716;28;20467;-77
2021/10/27 01:19:10;;;;;;;4.27;2.30;;;13.90;99.90;;;;;;5033443;28;20430;-78
2021/10/27 01:21:40;;;;;;;3.87;1.90;;;13.90;99.90;;;;;;5032761;28;20423;-77
2021/10/27 01:24:06;;;;;;;3.40;2.00;;;13.90;99.90;;;;;;5033177;28;20697;-77
2021/10/27 01:26:33;;;;;;;3.27;1.77;;;13.90;99.90;;;;;;5033497;28;20470;-78
2021/10/27 01:28:58;;;;;;;4.50;2.07;;;13.90;99.90;;;;;;5033695;28;20530;-78
2021/10/27 01:31:24;;;;;;;4.83;2.17;;;13.90;99.90;;;;;;5033489;28;20462;-78
2021/10/27 01:33:50;;;;;;;4.00;1.90;;;13.90;99.90;;;;;;5033365;28;20423;-78
2021/10/27 01:36:18;;;;;;;3.67;2.27;;;13.80;99.90;;;;;;5032960;28;20647;-77
2021/10/27 01:38:46;;;;;;;6.20;2.30;;;13.80;99.90;;;;;;5033405;28;20931;-77
2021/10/27 01:41:12;;;;;;;3.70;2.20;;;13.80;99.90;;;;;;5033039;28;20415;-78
2021/10/27 01:43:52;;;;;;;5.57;2.37;;;13.80;99.90;;;;;;5032663;28;20419;-76
2021/10/27 01:46:39;;;;;;;2.97;1.83;;;13.80;99.90;;;;;;5033799;28;20443;-77
2021/10/27 01:49:08;;;;;;;6.03;2.07;;;13.80;99.90;;;;;;5034311;28;20995;-78
2021/10/27 01:51:35;;;;;;;5.00;2.13;;;13.80;99.90;;;;;;5034031;28;20418;-78
2021/10/27 01:54:01;;;;;;;3.57;1.90;;;13.80;99.90;;;;;;5034291;28;20502;-78
2021/10/27 01:56:27;;;;;;;4.20;2.00;;;13.80;99.90;;;;;;5034135;28;20459;-78
2021/10/27 01:58:55;;;;;;;4.33;1.80;;;13.80;99.90;;;;;;5034394;28;20411;-78
2021/10/27 02:01:21;;;;;;;3.50;1.80;;;13.90;99.90;;;;;;5038027;28;20423;-78
2021/10/27 02:03:47;;;;;;;3.40;1.90;;;13.80;99.90;;;;;;5037388;28;20833;-78
2021/10/27 02:06:13;;;;;;;4.80;2.20;;;13.80;99.90;;;;;;5038600;28;20451;-79
2021/10/27 02:08:39;;;;;;;5.13;2.10;;;13.80;99.90;;;;;;5038099;28;20422;-78
2021/10/27 02:11:05;;;;;;;3.33;1.70;;;13.80;99.90;;;;;;5038700;28;20930;-78
2021/10/27 02:13:31;;;;;;;4.27;2.10;;;13.80;99.90;;;;;;5037916;28;20423;-78
2021/10/27 02:15:57;;;;;;;2.93;1.90;;;13.80;99.90;;;;;;5038227;28;20972;-77
2021/10/27 02:18:23;;;;;;;4.50;1.60;;;13.80;99.90;;;;;;5038017;28;20834;-78
2021/10/27 02:20:50;;;;;;;2.90;1.93;;;13.70;99.90;;;;;;5037795;28;20419;-78
2021/10/27 02:23:16;;;;;;;2.97;2.20;;;13.70;99.90;;;;;;5038583;28;20429;-78
2021/10/27 02:25:42;;;;;;;4.17;2.50;;;13.70;99.90;;;;;;5037738;28;20434;-78
2021/10/27 02:28:08;;;;;;;3.67;2.63;;;13.70;99.90;;;;;;5039994;28;20510;-79
2021/10/27 02:30:34;;;;;;;4.40;3.47;;;13.70;99.90;;;;;;5040180;28;20442;-79
2021/10/27 02:33:03;;;;;;;5.50;3.27;;;13.60;99.90;;;;;;5039577;28;20176;-78
2021/10/27 02:35:30;;;;;;;4.43;2.67;;;13.60;99.90;;;;;;5040126;28;20269;-79
2021/10/27 02:37:56;;;;;;;4.03;2.40;;;13.60;99.90;;;;;;5038849;28;20524;-78
2021/10/27 02:40:22;;;;;;;2.77;1.90;;;13.60;99.90;;;;;;5039552;28;20415;-79
2021/10/27 02:42:48;;;;;;;5.20;2.13;;;13.60;99.90;;;;;;5038547;28;20840;-78
2021/10/27 02:45:15;;;;;;;4.67;2.17;;;13.70;99.90;;;;;;5038611;28;20533;-79
2021/10/27 02:47:44;;;;;;;3.60;2.40;;;13.70;99.90;;;;;;5038293;28;20534;-78
2021/10/27 02:50:12;;;;;;;4.27;2.20;;;13.80;99.90;;;;;;5038574;28;20422;-78
2021/10/27 02:52:38;;;;;;;3.53;2.03;;;13.80;99.90;;;;;;5037725;28;20465;-78
2021/10/27 02:55:04;;;;;;;4.00;2.20;;;13.70;99.90;;;;;;5037884;28;20949;-78
2021/10/27 02:57:30;;;;;;;5.00;2.47;;;13.80;99.90;;;;;;5037671;28;20478;-78
2021/10/27 02:59:56;;;;;;;4.97;3.20;;;13.80;99.90;;;;;;5037992;28;20423;-78
2021/10/27 03:02:22;;;;;;;5.10;3.20;;;13.70;99.90;;;;;;5037611;28;20486;-78
2021/10/27 03:04:48;;;;;;;5.10;2.40;;;13.70;99.90;;;;;;5037094;28;20484;-79
2021/10/27 03:07:14;;;;;;;5.33;2.50;;;13.70;99.90;;;;;;5037450;28;20242;-79
2021/10/27 03:09:40;;;;;;;5.80;2.10;;;13.70;99.90;;;;;;5037661;28;20192;-79
2021/10/27 03:12:06;;;;;;;6.83;2.27;;;13.70;99.90;;;;;;5037424;28;20587;-78
2021/10/27 03:14:32;;;;;;;4.00;2.17;;;13.70;99.90;;;;;;5037573;28;20250;-79
2021/10/27 03:16:58;;;;;;;4.60;2.27;;;13.70;99.90;;;;;;5037360;28;20451;-79
2021/10/27 03:19:24;;;;;;;4.40;2.73;;;13.60;99.90;;;;;;5037909;28;20415;-78
2021/10/27 03:21:50;;;;;;;4.40;2.40;;;13.50;99.90;;;;;;5037050;28;20421;-79
2021/10/27 03:24:16;;;;;;;3.80;2.20;;;13.40;99.90;;;;;;5036868;28;20176;-78
2021/10/27 03:26:43;;;;;;;5.23;1.93;;;13.30;99.90;;;;;;5037829;28;20234;-78
2021/10/27 03:29:09;;;;;;;6.03;2.10;;;13.20;99.90;;;;;;5036836;28;20488;-78
2021/10/27 03:31:35;;;;;;;4.67;2.43;;;13.20;99.90;;;;;;5036919;28;20862;-78
2021/10/27 03:34:01;;;;;;;4.50;1.67;;;13.10;99.90;;;;;;5036664;28;20469;-78
2021/10/27 03:36:27;;;;;;;4.93;1.87;;;13.10;99.90;;;;;;5036400;28;20462;-78
2021/10/27 03:38:53;;;;;;;4.77;2.40;;;13.00;99.90;;;;;;5036384;28;20514;-78
2021/10/27 03:41:19;;;;;;;2.73;1.63;;;13.00;99.90;;;;;;5036768;28;20419;-78
2021/10/27 03:43:45;;;;;;;5.23;1.80;;;12.90;99.90;;;;;;5037549;28;20184;-78
2021/10/27 03:46:11;;;;;;;2.90;1.60;;;12.90;99.90;;;;;;5040631;28;20526;-78
2021/10/27 03:48:39;;;;;;;3.83;1.80;;;12.80;99.90;;;;;;5039370;28;20184;-79
2021/10/27 03:51:07;;;;;;;3.37;2.17;;;12.80;99.90;;;;;;5039083;28;20433;-79
2021/10/27 03:53:33;;;;;;;7.20;2.47;;;12.70;99.90;;;;;;5038901;28;20455;-78
2021/10/27 03:55:59;;;;;;;4.57;2.13;;;12.70;99.90;;;;;;5038619;28;20435;-79
2021/10/27 03:58:25;;;;;;;3.83;2.83;;;12.70;99.90;;;;;;5039077;28;20252;-79
2021/10/27 04:00:51;;;;;;;4.00;2.40;;;12.60;99.90;;;;;;5038823;28;20182;-78
2021/10/27 04:03:23;;;;;;;6.20;3.40;;;12.60;99.90;;;;;;5037469;28;20490;-78
2021/10/27 04:05:50;;;;;;;6.07;2.50;;;12.60;99.90;;;;;;5038454;28;20216;-79
2021/10/27 04:08:17;;;;;;;6.67;3.27;;;12.50;99.90;;;;;;5038416;28;20423;-78
2021/10/27 04:10:45;;;;;;;6.03;3.07;;;12.50;99.90;;;;;;5036542;28;20459;-78
2021/10/27 04:13:16;;;;;;;7.10;2.87;;;12.40;99.90;;;;;;5035300;28;20434;-78
2021/10/27 04:15:42;;;;;;;7.70;3.40;;;12.40;99.90;;;;;;5035445;28;20816;-76
2021/10/27 04:18:08;;;;;;;5.80;2.70;;;12.40;99.90;;;;;;5035185;28;20470;-78
2021/10/27 04:20:35;;;;;;;5.80;3.23;;;12.30;99.90;;;;;;5035923;28;20427;-78
2021/10/27 04:23:00;;;;;;;6.50;3.20;;;12.30;99.90;;;;;;5033993;28;20490;-78
2021/10/27 04:25:27;;;;;;;4.83;2.80;;;12.40;99.90;;;;;;5035604;28;20458;-78
2021/10/27 04:27:52;;;;;;;6.13;2.70;;;12.40;99.90;;;;;;5034771;28;20262;-78
2021/10/27 04:30:18;;;;;;;6.20;3.40;;;12.40;99.90;;;;;;5035099;28;20415;-78
2021/10/27 04:32:44;;;;;;;4.03;2.40;;;12.50;99.90;;;;;;5035074;28;20427;-77
2021/10/27 04:35:10;;;;;;;4.60;2.47;;;12.50;99.90;;;;;;5035163;28;20215;-78
2021/10/27 04:37:41;;;;;;;6.30;2.50;;;12.60;99.90;;;;;;5034137;28;20200;-78
2021/10/27 04:40:10;;;;;;;7.40;3.23;;;12.70;99.90;;;;;;5034766;28;20419;-78
2021/10/27 04:42:36;;;;;;;4.40;2.57;;;12.70;99.90;;;;;;5035119;28;20472;-78
2021/10/27 04:45:04;;;;;;;6.13;3.13;;;12.70;99.90;;;;;;5034812;28;20438;-77
2021/10/27 04:47:30;;;;;;;7.90;3.90;;;12.70;99.90;;;;;;5034271;28;20419;-78
2021/10/27 04:49:56;;;;;;;7.03;4.17;;;12.60;99.90;;;;;;5034480;28;20427;-78
2021/10/27 04:52:22;;;;;;;6.57;3.77;;;12.60;99.90;;;;;;5033834;28;20926;-77
2021/10/27 04:54:48;;;;;;;6.43;3.90;;;12.60;99.90;;;;;;5032931;28;20493;-77
2021/10/27 04:57:13;;;;;;;7.13;4.13;;;12.60;99.90;;;;;;5033847;28;20254;-78
2021/10/27 04:59:42;;;;;;;8.33;4.30;;;12.60;99.90;;;;;;5034391;28;20178;-78
2021/10/27 05:02:09;;;;;;;5.60;3.00;;;12.60;99.90;;;;;;5035095;28;20180;-78
2021/10/27 05:04:35;;;;;;;7.40;3.50;;;12.70;99.90;;;;;;5034484;28;20454;-78
2021/10/27 05:07:01;;;;;;;6.27;2.93;;;12.80;99.90;;;;;;5034778;28;20480;-77
2021/10/27 05:09:27;;;;;;;6.17;3.23;;;12.80;99.90;;;;;;5034631;28;20415;-77
2021/10/27 05:11:54;;;;;;;6.13;3.23;;;12.90;99.90;;;;;;5033492;28;21249;-78
2021/10/27 05:14:20;;;;;;;5.13;3.10;;;12.90;99.90;;;;;;5033790;28;20415;-77
2021/10/27 05:16:46;;;;;;;3.97;2.50;;;12.90;99.90;;;;;;5033391;28;21058;-77
2021/10/27 05:19:12;;;;;;;6.03;3.30;;;12.90;99.90;;;;;;5034790;28;20218;-78
2021/10/27 05:21:38;;;;;;;4.63;3.00;;;12.90;99.90;;;;;;5037045;28;20525;-79
2021/10/27 05:24:04;;;;;;;8.50;3.67;;;13.00;99.90;;;;;;5035289;28;20189;-78
2021/10/27 05:26:30;;;;;;;5.57;3.77;;;13.00;99.90;;;;;;5035319;28;20668;-78
2021/10/27 05:28:56;;;;;;;6.50;3.10;;;13.10;99.90;;;;;;5035123;28;20431;-77
2021/10/27 05:31:22;;;;;;;5.70;3.10;;;13.10;99.90;;;;;;5035054;28;20237;-78
2021/10/27 05:33:47;;;;;;;5.20;3.10;;;13.10;99.90;;;;;;5035860;28;20184;-79
2021/10/27 05:36:13;;;;;;;6.40;3.80;;;13.10;99.90;;;;;;5034272;28;20208;-78
2021/10/27 05:38:40;;;;;;;6.43;3.63;;;13.10;99.90;;;;;;5033575;28;20184;-78
2021/10/27 05:41:06;;;;;;;5.60;3.37;;;13.20;99.90;;;;;;5034772;28;20605;-78
2021/10/27 05:43:33;;;;;;;5.70;3.27;;;13.20;99.90;;;;;;5035889;28;20514;-78
2021/10/27 05:46:00;;;;;;;5.80;3.80;;;13.20;99.90;;;;;;5037526;28;20447;-79
2021/10/27 05:48:31;;;;;;;7.27;4.37;;;13.20;99.90;;;;;;5035077;28;20453;-78
2021/10/27 05:56:09;;;;;;;4.87;3.70;;;13.20;99.90;;;;;;5036146;28;21099;-78
2021/10/27 05:58:35;;;;;;;8.63;4.30;;;13.20;99.90;;;;;;5033792;28;20426;-78
2021/10/27 06:01:01;;;;;;;5.57;3.67;;;13.20;99.90;;;;;;5034213;28;20690;-78
2021/10/27 06:03:27;;;;;;;5.47;3.07;;;13.20;99.90;;;;;;5031093;28;20188;-77
2021/10/27 06:05:53;;;;;;;6.60;4.43;;;13.30;99.90;;;;;;5030548;28;20695;-77
2021/10/27 06:08:18;;;;;;;6.17;3.53;;;13.20;99.90;;;;;;5030724;28;20176;-77
2021/10/27 06:10:46;;;;;;;5.43;3.57;;;13.20;99.90;;;;;;5030471;28;20203;-76
2021/10/27 06:13:15;;;;;;;4.73;3.43;;;13.20;99.90;;;;;;5030331;28;20227;-76
2021/10/27 06:15:40;;;;;;;8.10;4.53;;;13.20;99.90;;;;;;5030229;28;20446;-77
2021/10/27 06:18:06;;;;;;;6.60;4.10;;;13.20;99.90;;;;;;5030214;28;20462;-77
2021/10/27 06:20:32;;;;;;;7.47;4.30;;;13.20;99.90;;;;;;5030195;28;20801;-77
2021/10/27 06:22:58;;;;;;;5.13;3.40;;;13.20;99.90;;;;;;5030020;28;20628;-76
2021/10/27 06:25:25;;;;;;;5.33;3.70;;;13.20;99.90;;;;;;5030090;28;20465;-77
2021/10/27 06:27:59;;;;;;;5.80;4.03;;;13.20;99.90;;;;;;5030228;28;20465;-77
2021/10/27 06:30:42;;;;;;;5.10;3.40;;;13.20;99.90;;;;;;5030422;28;20426;-77
2021/10/27 06:36:10;;;;;;;7.40;3.63;;;13.30;99.90;;;;;;5031595;28;20461;-76
2021/10/27 06:46:49;;;;;;;5.57;3.23;;;13.40;99.90;;;;;;5034022;28;20438;-74
2021/10/27 06:49:14;;;;;;;5.00;3.23;;;13.40;99.90;;;;;;5035445;28;20423;-78
2021/10/27 06:51:40;;;;;;;4.47;3.20;;;13.40;99.90;;;;;;5035765;28;20445;-77
2021/10/27 06:54:06;;;;;;;7.10;3.60;;;13.50;99.90;;;;;;5036367;28;20223;-77
2021/10/27 06:56:34;;;;;;;5.77;3.37;;;13.50;99.90;;;;;;5035108;28;20220;-77
2021/10/27 06:59:25;;;;;;;4.50;3.30;;;13.60;99.90;;;;;;5036031;28;20490;-77
2021/10/27 07:02:13;;;;;;;5.97;3.80;;;13.60;99.90;;;;;;5036102;28;20836;-77
2021/10/27 07:05:29;;;;;;;9.27;4.10;;;13.60;99.90;;;;;;5037046;28;20520;-78
2021/10/27 07:15:36;;;;;;;8.23;3.70;;;13.60;99.90;;;;;;5037803;28;20489;-78
2021/10/27 07:18:02;;;;;;;7.60;3.83;;;13.50;99.90;;;;;;5035958;28;20977;-78
2021/10/27 07:20:29;;;;;;;7.00;3.60;;;13.60;99.90;;;;;;5035758;28;20439;-77
2021/10/27 07:23:04;;;;;;;8.27;4.00;;;13.60;99.90;;;;;;5035909;28;20517;-78
2021/10/27 07:25:35;;;;;;;8.57;4.00;;;13.60;99.90;;;;;;5035982;28;20435;-78
2021/10/27 07:28:02;;;;;;;5.40;3.57;;;13.60;99.90;;;;;;5035973;28;20459;-77
2021/10/27 07:30:28;;;;;;;6.27;3.37;;;13.60;99.90;;;;;;5035766;28;20419;-77
2021/10/27 07:32:56;;;;;;;5.40;3.53;;;13.60;99.90;;;;;;5035438;28;20421;-78
2021/10/27 07:40:46;;;;;;;5.53;3.60;;;13.60;99.90;;;;;;5037688;28;20457;-77
2021/10/27 07:43:19;;;;;;;5.80;3.83;;;13.60;99.90;;;;;;5035284;28;20427;-77
2021/10/27 07:45:45;;;;;;;4.87;3.50;;;13.60;99.90;;;;;;5035503;28;20439;-77
2021/10/27 07:48:12;;;;;;;7.27;3.30;;;13.70;99.90;;;;;;5035700;28;20463;-78
2021/10/27 07:50:39;;;;;;;4.97;3.43;;;13.70;99.90;;;;;;5035131;28;20423;-77
2021/10/27 07:53:07;;;;;;;6.27;3.20;;;13.70;99.90;;;;;;5035582;28;20418;-78
2021/10/27 07:55:34;;;;;;;4.93;3.20;;;13.70;99.90;;;;;;5035299;28;20868;-77
2021/10/27 07:58:02;;;;;;;6.70;3.97;;;13.70;99.90;;;;;;5034261;28;20469;-77
2021/10/27 08:00:29;;;;;;;5.20;2.97;;;13.80;99.90;;;;;;5035414;28;20477;-77
2021/10/27 08:03:00;;;;;;;4.27;3.20;;;13.80;99.90;;;;;;5034814;28;20919;-77
2021/10/27 08:05:31;;;;;;;5.20;3.30;;;13.80;99.90;;;;;;5035037;28;20824;-78
2021/10/27 08:07:57;;;;;;;5.30;2.80;;;13.80;99.90;;;;;;5034589;28;20435;-78
2021/10/27 08:10:24;;;;;;;4.47;2.93;;;13.90;99.90;;;;;;5032726;23;20488;-77
2021/10/27 08:12:50;;;;;;;6.80;4.43;;;13.90;99.90;;;;;;5012222;28;21020;-77
2021/10/27 08:15:20;;;;;;;5.23;3.40;;;13.90;99.90;;;;;;5012322;28;20966;-78
2021/10/27 08:17:47;;;;;;;6.10;3.30;;;14.00;99.90;;;;;;5012522;28;20554;-77
2021/10/27 08:20:14;;;;;;;7.80;3.43;;;14.00;99.90;;;;;;5012348;28;20423;-77
2021/10/27 08:22:43;;;;;;;4.60;3.40;;;14.00;99.90;;;;;;5012658;28;20519;-77
2021/10/27 08:25:18;;;;;;;5.63;3.53;;;14.00;99.90;;;;;;5012145;28;20471;-78
2021/10/27 08:27:44;;;;;;;6.00;3.57;;;14.10;99.90;;;;;;5012356;28;20984;-77
2021/10/27 08:30:12;;;;;;;4.90;3.00;;;14.10;99.90;;;;;;5012341;28;20415;-78
2021/10/27 08:32:54;;;;;;;7.70;3.83;;;14.10;99.90;;;;;;5012289;28;20664;-78
2021/10/27 08:35:21;;;;;;;6.10;3.43;;;14.10;99.90;;;;;;5012166;28;20450;-78
2021/10/27 08:37:49;;;;;;;6.47;3.33;;;14.10;99.90;;;;;;5012468;28;20491;-78
2021/10/27 08:40:19;;;;;;;5.17;3.40;;;14.20;99.90;;;;;;5012564;28;20791;-78
2021/10/27 08:42:45;;;;;;;4.43;3.37;;;14.20;99.90;;;;;;5012153;28;20428;-77
2021/10/27 08:45:12;;;;;;;4.80;3.20;;;14.20;99.90;;;;;;5011987;28;20446;-78
2021/10/27 08:47:42;;;;;;;5.73;3.37;;;14.40;99.90;;;;;;5012259;28;20448;-78
2021/10/27 08:50:12;;;;;;;6.07;3.27;;;14.50;99.90;;;;;;5012404;28;20447;-77
2021/10/27 08:52:39;;;;;;;6.30;3.30;;;14.60;99.90;;;;;;5012318;28;20478;-77
2021/10/27 08:55:05;;;;;;;5.30;3.50;;;14.60;99.90;;;;;;5012000;28;20474;-77
2021/10/27 08:57:32;;;;;;;12.20;3.67;;;14.60;99.90;;;;;;5012283;28;20459;-78
2021/10/27 09:00:08;;;;;;;6.20;3.50;;;14.70;99.90;;;;;;5012328;28;20934;-78
2021/10/27 09:16:44;;;;;;;5.03;3.03;;;15.00;99.90;;;;;;5013657;28;20543;-78
2021/10/27 10:04:06;;;;;;;4.37;3.27;;;15.60;99.90;;;;;;4952578;28;20447;-77
2021/10/27 10:06:34;;;;;;;3.73;2.40;;;15.60;99.90;;;;;;5007034;28;20519;-77
2021/10/27 10:09:01;;;;;;;6.10;3.10;;;15.70;99.90;;;;;;5012282;28;20521;-78
2021/10/27 10:11:27;;;;;;;5.20;2.90;;;15.80;99.90;;;;;;5011387;28;20431;-78
2021/10/27 10:14:00;;;;;;;4.27;2.10;;;15.90;99.90;;;;;;5011420;28;20432;-78
2021/10/27 10:16:27;;;;;;;6.30;2.57;;;15.90;99.90;;;;;;5011426;28;20494;-78
2021/10/27 10:18:59;;;;;;;6.93;2.67;;;16.00;99.90;;;;;;5012224;28;20426;-78
2021/10/27 10:21:28;;;;;;;4.67;2.67;;;16.10;99.90;;;;;;5013125;28;21150;-78
2021/10/27 10:24:27;;;;;;;3.87;2.57;;;16.30;99.90;;;;;;5015553;28;20835;-78
2021/10/27 10:27:00;;;;;;;6.87;2.17;;;16.50;99.90;;;;;;5015738;28;20792;-78
2021/10/27 10:29:37;;;;;;;3.83;2.20;;;16.70;99.90;;;;;;5014805;28;20808;-78
2021/10/27 10:32:22;;;;;;;3.60;2.40;;;16.80;99.90;;;;;;5014892;28;20526;-78
2021/10/27 10:34:54;;;;;;;3.93;2.33;;;17.10;99.90;;;;;;5015626;28;20590;-78
2021/10/27 10:37:50;;;;;;;3.70;2.50;;;17.30;99.90;;;;;;5015577;28;20463;-78
2021/10/27 10:40:37;;;;;;;3.57;2.43;;;17.40;99.90;;;;;;5015499;28;20466;-77
2021/10/27 10:45:45;;;;;;;3.80;2.00;;;17.40;99.90;;;;;;5016507;28;20494;-77
2021/10/27 11:00:32;;;;;;;4.10;2.50;;;17.90;99.90;;;;;;5018045;28;20392;-78
2021/10/27 11:23:09;;;;;;;3.50;1.80;;;19.20;99.90;;;;;;5014775;28;20459;-78
2021/10/27 11:42:20;;;;;;;5.40;2.13;;;26.80;99.90;;;;;;5016139;28;20495;-78
2021/10/27 11:45:21;;;;;;;3.47;1.80;;;27.50;99.90;;;;;;5015993;28;20967;-78
2021/10/27 11:47:42;;;;;;;3.70;1.83;;;28.20;99.90;;;;;;5015171;28;20420;-78
2021/10/27 11:50:19;;;;;;;3.70;1.60;;;29.00;97.90;;;;;;5013577;28;20804;-78
2021/10/27 11:52:48;;;;;;;4.00;2.07;;;28.80;95.90;;;;;;5012665;28;20815;-79
2021/10/27 11:55:15;;;;;;;3.77;1.60;;;27.30;96.20;;;;;;5014761;28;20451;-78
2021/10/27 11:57:43;;;;;;;3.00;1.63;;;27.10;98.10;;;;;;5015561;28;20460;-79
2021/10/27 12:00:50;;;;;;;4.20;1.73;;;27.00;97.40;;;;;;5014506;28;20507;-79
2021/10/27 12:03:16;;;;;;;3.23;1.60;;;26.40;99.50;;;;;;5015855;28;20423;-78
2021/10/27 12:19:18;;;;;;;5.30;1.97;;;23.80;99.90;;;;;;5016743;28;20184;-79
2021/10/27 12:22:00;;;;;;;4.53;2.13;;;23.50;99.90;;;;;;5014975;28;20434;-79
2021/10/27 12:24:30;;;;;;;5.23;1.93;;;23.20;99.90;;;;;;5014705;28;20419;-79
2021/10/27 12:27:07;;;;;;;4.63;1.90;;;22.70;99.90;;;;;;5014582;28;20447;-79
2021/10/27 12:29:35;;;;;;;3.37;2.23;;;22.60;99.90;;;;;;5014591;28;20770;-78
2021/10/27 12:32:12;;;;;;;4.40;2.00;;;22.60;99.90;;;;;;5013398;28;20874;-79
2021/10/27 12:34:56;;;;;;;4.90;1.67;;;23.50;99.90;;;;;;5017098;28;20443;-79
2021/10/27 12:40:36;;;;;;;5.50;2.03;;;26.70;99.90;;;;;;5016086;28;20454;-78
2021/10/27 12:43:15;;;;;;;2.63;1.60;;;26.90;99.90;;;;;;4998683;28;20416;-79
2021/10/27 12:45:45;;;;;;;9.97;2.20;;;26.40;99.90;;;;;;5014313;28;20471;-78
2021/10/27 12:48:36;;;;;;;2.67;1.40;;;26.40;99.90;;;;;;5016818;28;20415;-78
2021/10/27 12:51:10;;;;;;;3.50;1.73;;;26.80;99.90;;;;;;5015830;28;20438;-79
2021/10/27 12:53:40;;;;;;;3.27;1.87;;;27.50;98.40;;;;;;5013966;28;20473;-79
2021/10/27 12:56:16;;;;;;;6.27;2.23;;;27.70;98.00;;;;;;5007821;28;20460;-79
2021/10/27 12:58:47;;;;;;;3.50;1.60;;;27.30;96.90;;;;;;5014652;28;20435;-78
2021/10/27 13:18:01;;;;;;;4.30;1.80;;;24.20;99.90;;;;;;4960387;28;21000;-78
2021/10/27 13:21:20;;;;;;;3.67;1.70;;;23.40;99.90;;;;;;5012497;28;20424;-78
2021/10/27 13:23:44;;;;;;;2.87;1.60;;;22.50;99.90;;;;;;5001022;28;20453;-78
2021/10/27 13:31:29;;;;;;;4.30;2.00;;;21.40;99.90;;;;;;5014388;28;20900;-78
2021/10/27 13:33:55;;;;;;;3.90;1.60;;;21.20;99.90;;;;;;5013598;28;20456;-78
2021/10/27 13:36:21;;;;;;;3.47;2.13;;;21.00;99.90;;;;;;5013442;28;20224;-78
2021/10/27 13:38:46;;;;;;;4.10;1.80;;;20.70;99.90;;;;;;5013138;28;20192;-77
2021/10/27 13:41:12;;;;;;;5.50;2.03;;;20.50;99.90;;;;;;5012150;28;20189;-78
2021/10/27 14:07:34;;;;;;;5.53;1.90;;;21.10;99.90;;;;;;5017956;28;20508;-77
2021/10/27 14:20:26;;;;;;;4.07;2.30;;;21.20;99.90;;;;;;5016439;28;20505;-87
2021/10/27 14:40:00;;;;;;;3.43;1.70;;;20.20;99.90;;;;;;5015908;28;20446;-86
2021/10/27 14:59:10;;;;;;;4.97;1.90;;;19.10;99.90;;;;;;5015881;28;20410;-87
2021/10/27 15:21:24;;;;;;;5.97;2.20;;;18.70;99.90;;;;;;4996104;28;20471;-87
2021/10/27 15:32:20;;;;;;;6.70;2.70;;;18.40;99.90;;;;;;5010244;28;20442;-88
2021/10/27 15:42:55;;;;;;;7.60;2.77;;;17.90;99.90;;;;;;5002948;28;20465;-87
2021/10/27 15:50:51;;;;;;;4.50;1.93;;;17.60;99.90;;;;;;5020125;28;20439;-86
2021/10/27 15:53:18;;;;;;;5.50;2.47;;;17.50;99.90;;;;;;5012249;28;20943;-86
2021/10/27 15:55:43;;;;;;;5.13;2.30;;;17.40;99.90;;;;;;5014012;28;20461;-86
2021/10/27 15:58:09;;;;;;;3.63;2.10;;;17.40;99.90;;;;;;4994838;28;20542;-86
2021/10/27 16:00:39;;;;;;;7.90;2.30;;;17.30;99.90;;;;;;5011446;28;20691;-86
2021/10/27 16:03:15;;;;;;;7.03;2.30;;;17.10;99.90;;;;;;5016129;28;20177;-89
2021/10/27 16:05:46;;;;;;;4.40;2.10;;;17.00;99.90;;;;;;5012138;28;20512;-90
2021/10/27 16:08:14;;;;;;;3.40;2.30;;;17.00;99.90;;;;;;5008784;28;21518;-88
2021/10/27 16:10:39;;;;;;;4.30;2.73;;;16.90;99.90;;;;;;5000765;28;20472;-86
2021/10/27 16:13:06;;;;;;;3.53;2.00;;;16.70;99.90;;;;;;5009707;28;20986;-86
2021/10/27 16:16:16;;;;;;;4.00;2.10;;;16.60;99.90;;;;;;5002611;28;20193;-87
2021/10/27 16:18:22;;;;;;;4.20;2.60;;;16.50;99.90;;;;;;4991646;28;20551;-88
2021/10/27 16:20:47;;;;;;;3.57;2.07;;;16.40;99.90;;;;;;5009876;28;20448;-86
2021/10/27 16:23:17;;;;;;;5.70;2.23;;;16.30;99.90;;;;;;5005449;28;20427;-86
2021/10/27 16:25:46;;;;;;;3.17;2.00;;;16.30;99.90;;;;;;5012673;28;20560;-89
2021/10/27 16:28:11;;;;;;;3.53;2.43;;;16.20;99.90;;;;;;4996345;28;20416;-86
2021/10/27 16:30:37;;;;;;;6.07;2.73;;;16.10;99.90;;;;;;5012860;28;20643;-85
2021/10/27 16:33:03;;;;;;;4.70;2.40;;;16.00;99.90;;;;;;5011858;28;20201;-86
2021/10/27 16:35:29;;;;;;;5.70;2.47;;;15.90;99.90;;;;;;5012119;28;20491;-87
2021/10/27 16:37:55;;;;;;;5.23;3.00;;;15.90;99.90;;;;;;5011758;28;20498;-87
2021/10/27 16:40:22;;;;;;;5.80;3.50;;;15.80;99.90;;;;;;5012262;28;20880;-87
2021/10/27 16:42:48;;;;;;;3.90;2.40;;;15.70;99.90;;;;;;5013111;28;20923;-86
2021/10/27 16:45:16;;;;;;;4.80;2.67;;;15.60;99.90;;;;;;5012049;28;20420;-87
2021/10/27 16:47:42;;;;;;;4.20;2.80;;;15.60;99.90;;;;;;5012077;28;20507;-87
2021/10/27 16:50:10;;;;;;;5.67;2.87;;;15.50;99.90;;;;;;5011853;28;20447;-87
2021/10/27 16:52:36;;;;;;;5.93;3.00;;;15.40;99.90;;;;;;5011938;28;20820;-86
2021/10/27 16:55:04;;;;;;;6.97;3.10;;;15.30;99.90;;;;;;5011875;28;20432;-86
2021/10/27 16:57:29;;;;;;;5.37;3.10;;;15.20;99.90;;;;;;5011646;28;20455;-86
2021/10/27 16:59:56;;;;;;;8.47;3.07;;;15.10;99.90;;;;;;5011638;28;20440;-87
2021/10/27 17:02:21;;;;;;;6.27;3.23;;;15.00;99.90;;;;;;5011763;28;20946;-86
2021/10/27 17:04:47;;;;;;;5.70;3.10;;;15.00;99.90;;;;;;5011505;28;20408;-87
2021/10/27 17:07:14;;;;;;;5.33;2.90;;;15.00;99.90;;;;;;5011922;28;20656;-87
2021/10/27 17:09:39;;;;;;;6.57;2.90;;;14.90;99.90;;;;;;5011403;28;21015;-86
2021/10/27 17:12:06;;;;;;;5.87;4.23;;;14.90;99.90;;;;;;5011744;28;20424;-86
2021/10/27 17:14:34;;;;;;;6.13;3.20;;;14.90;99.90;;;;;;5011575;28;20606;-87
2021/10/27 17:17:00;;;;;;;4.00;3.17;;;14.80;99.90;;;;;;5011408;28;20460;-87
2021/10/27 17:19:26;;;;;;;4.47;2.80;;;14.70;99.90;;;;;;5011717;28;20447;-87
2021/10/27 17:21:52;;;;;;;5.80;3.20;;;14.70;99.90;;;;;;5011964;28;20420;-87
2021/10/27 17:24:18;;;;;;;4.53;3.17;;;14.60;99.90;;;;;;5011895;28;20648;-87
2021/10/27 17:26:44;;;;;;;8.60;3.40;;;14.60;99.90;;;;;;5011844;28;20558;-87
2021/10/27 17:29:11;;;;;;;4.80;3.57;;;14.50;99.90;;;;;;5011774;28;20443;-87
2021/10/27 17:31:37;;;;;;;5.80;4.00;;;14.40;99.90;;;;;;5011257;28;20923;-86
2021/10/27 17:34:06;;;;;;;4.00;3.00;;;14.40;99.90;;;;;;5011757;28;20430;-87
2021/10/27 17:36:32;;;;;;;4.63;3.80;;;14.40;99.90;;;;;;5011822;28;20424;-86
2021/10/27 17:38:59;;;;;;;6.17;3.70;;;14.30;99.90;;;;;;5012010;28;20478;-86
2021/10/27 17:41:27;;;;;;;5.30;4.00;;;14.30;99.90;;;;;;5022884;28;20436;-87
2021/10/27 17:43:54;;;;;;;4.73;3.47;;;14.30;99.90;;;;;;5013005;28;20519;-87